Time;durP1;ratioP1;P1;durP2;ratioP2;P2;SDS_P1;SDS_P2;PMS_P1;PMS_P2;Temp;Humidity;BMP_temperature;BMP_pressure;BME280_temperature;BME280_humidity;BME280_pressure;Samples;Min_cycle;Max_cycle;Signal;HPM_P1;HPM_P2
2022/04/02 00:01:16;;;;;;;16.08;10.80;;;;;;;-0.33;100.00;100345.13;5046772;28;20750;-56
2022/04/02 00:03:41;;;;;;;16.15;10.35;;;;;;;-0.33;100.00;100348.56;5046776;28;20032;-58
2022/04/02 00:06:07;;;;;;;15.88;10.77;;;;;;;-0.35;100.00;100336.53;5046782;28;20792;-57
2022/04/02 00:08:34;;;;;;;13.15;9.95;;;;;;;-0.89;100.00;100250.94;5046419;28;20028;-58
2022/04/02 00:10:59;;;;;;;15.45;10.55;;;;;;;-0.73;100.00;100278.31;5045697;28;20024;-58
2022/04/02 00:13:24;;;;;;;15.60;11.88;;;;;;;-0.38;100.00;100340.00;5045839;28;20218;-56
2022/04/02 00:15:50;;;;;;;13.63;11.10;;;;;;;-0.38;100.00;100344.31;5045693;28;20024;-57
2022/04/02 00:18:15;;;;;;;14.27;11.57;;;;;;;-0.42;100.00;100348.63;5045883;28;20143;-58
2022/04/02 00:20:41;;;;;;;16.67;11.32;;;;;;;-0.37;100.00;100351.19;5045689;28;20028;-57
2022/04/02 00:25:50;;;;;;;17.10;11.43;;;;;;;-0.54;100.00;100328.91;5047412;28;20125;-58
2022/04/02 00:28:15;;;;;;;18.48;11.25;;;;;;;-0.46;100.00;100349.53;5029070;28;21114;-57
2022/04/02 00:30:41;;;;;;;13.48;10.98;;;;;;;-0.42;100.00;100350.34;5045459;28;20024;-58
2022/04/02 00:33:06;;;;;;;14.18;11.55;;;;;;;-0.44;100.00;100358.09;5045671;28;20834;-58
2022/04/02 00:35:32;;;;;;;13.63;11.95;;;;;;;-0.51;100.00;100343.53;5045697;28;20122;-58
2022/04/02 00:37:57;;;;;;;17.30;11.75;;;;;;;-0.43;100.00;100354.66;5046901;28;20031;-58
2022/04/02 00:40:23;;;;;;;13.07;10.02;;;;;;;-0.51;100.00;100336.63;5027669;28;20089;-58
2022/04/02 00:42:48;;;;;;;15.70;10.48;;;;;;;-0.42;100.00;100346.06;5047029;28;20024;-57
2022/04/02 00:45:13;;;;;;;12.88;10.32;;;;;;;-0.42;100.00;100345.19;5048573;28;20089;-57
2022/04/02 00:47:39;;;;;;;15.80;10.32;;;;;;;-0.47;100.00;100334.06;5047183;28;20032;-58
2022/04/02 00:50:05;;;;;;;17.15;11.07;;;;;;;-0.45;100.00;100358.97;5047483;28;20024;-58
2022/04/02 00:52:30;;;;;;;18.13;11.35;;;;;;;-0.48;100.00;100340.94;5046461;28;20822;-58
2022/04/02 00:54:55;;;;;;;12.63;10.40;;;;;;;-0.47;100.00;100336.66;5047749;28;21016;-58
2022/04/02 00:57:22;;;;;;;17.42;10.10;;;;;;;-0.54;100.00;100328.91;5045021;28;20068;-58
2022/04/02 00:59:48;;;;;;;16.15;10.60;;;;;;;-0.48;100.00;100335.78;5046522;28;20027;-58
2022/04/02 01:02:14;;;;;;;15.13;10.55;;;;;;;-0.47;100.00;100336.66;5047354;28;20029;-58
2022/04/02 01:04:40;;;;;;;14.45;10.68;;;;;;;-0.53;100.00;100328.06;5045699;28;20939;-58
2022/04/02 01:07:06;;;;;;;12.43;9.57;;;;;;;-0.53;100.00;100334.94;5045225;28;20056;-58
2022/04/02 01:09:31;;;;;;;14.20;9.35;;;;;;;-0.49;100.00;100344.38;5046179;28;20031;-57
2022/04/02 01:11:57;;;;;;;12.57;8.93;;;;;;;-0.48;100.00;100347.81;5044670;28;20028;-58
2022/04/02 01:14:22;;;;;;;12.55;9.77;;;;;;;-0.61;100.00;100324.66;5045408;28;20024;-58
2022/04/02 01:16:48;;;;;;;12.13;9.05;;;;;;;-0.53;100.00;100345.25;5046812;28;20035;-58
2022/04/02 01:19:14;;;;;;;13.32;8.68;;;;;;;-0.54;100.00;100338.38;5027088;28;20149;-58
2022/04/02 01:21:43;;;;;;;10.93;8.18;;;;;;;-0.57;100.00;100340.97;5045011;28;20067;-58
2022/04/02 01:24:09;;;;;;;13.10;9.27;;;;;;;-0.49;100.00;100352.13;5045328;28;20059;-58
2022/04/02 01:26:34;;;;;;;11.63;8.20;;;;;;;-0.49;100.00;100346.09;5045208;28;20036;-57
2022/04/02 01:29:00;;;;;;;14.27;8.23;;;;;;;-0.54;100.00;100334.06;5045063;28;20876;-58
2022/04/02 01:31:27;;;;;;;11.88;7.88;;;;;;;-0.53;100.00;100333.22;5044607;28;20433;-58
2022/04/02 01:33:53;;;;;;;9.15;7.30;;;;;;;-0.51;100.00;100339.22;5046356;28;20509;-58
2022/04/02 01:36:19;;;;;;;15.57;8.15;;;;;;;-0.49;100.00;100341.81;5045053;28;20139;-58
2022/04/02 01:38:45;;;;;;;10.18;7.78;;;;;;;-0.61;100.00;100332.41;5046206;28;20032;-58
2022/04/02 01:41:11;;;;;;;11.02;8.20;;;;;;;-0.55;100.00;100334.09;5044884;28;20028;-58
2022/04/02 01:43:37;;;;;;;11.05;8.25;;;;;;;-0.64;100.00;100327.25;5045007;28;20024;-58
2022/04/02 01:46:03;;;;;;;9.00;7.32;;;;;;;-0.55;100.00;100352.16;5044699;28;20035;-58
2022/04/02 01:48:30;;;;;;;9.93;7.63;;;;;;;-0.59;100.00;100340.16;5044937;28;20038;-58
2022/04/02 01:50:56;;;;;;;14.68;7.57;;;;;;;-0.59;100.00;100345.31;5044581;28;20067;-57
2022/04/02 01:53:22;;;;;;;15.07;8.07;;;;;;;-0.56;100.00;100353.03;5044748;28;20897;-57
2022/04/02 01:55:47;;;;;;;11.30;7.80;;;;;;;-1.08;100.00;100272.50;5044963;28;20052;-58
2022/04/02 01:58:13;;;;;;;13.57;7.28;;;;;;;-0.56;100.00;100360.75;5046571;28;20031;-58
2022/04/02 02:00:39;;;;;;;10.35;7.70;;;;;;;-0.60;100.00;100346.16;5045010;28;20094;-58
2022/04/02 02:03:06;;;;;;;12.55;7.93;;;;;;;-0.58;100.00;100359.94;5047648;28;20135;-58
2022/04/02 02:05:32;;;;;;;13.45;7.78;;;;;;;-0.68;100.00;100347.94;5050201;28;20028;-58
2022/04/02 02:07:57;;;;;;;9.25;7.38;;;;;;;-0.59;100.00;100365.94;5050388;28;20871;-58
2022/04/02 02:10:23;;;;;;;13.15;7.15;;;;;;;-0.60;100.00;100365.09;5049367;28;20066;-58
2022/04/02 02:12:48;;;;;;;13.68;7.65;;;;;;;-0.62;100.00;100365.97;5049180;28;20095;-57
2022/04/02 02:15:17;;;;;;;9.85;7.28;;;;;;;-0.66;100.00;100359.09;5048512;28;20135;-57
2022/04/02 02:17:49;;;;;;;13.95;7.55;;;;;;;-0.64;100.00;100362.50;5049539;28;20854;-58
2022/04/02 02:20:15;;;;;;;9.48;7.13;;;;;;;-0.65;100.00;100360.81;5048412;28;20738;-58
2022/04/02 02:22:42;;;;;;;8.90;6.50;;;;;;;-0.66;100.00;100370.28;5047957;28;20082;-58
2022/04/02 02:25:09;;;;;;;11.65;6.70;;;;;;;-1.24;100.00;100279.47;5047912;28;20219;-58
2022/04/02 02:27:35;;;;;;;9.60;6.38;;;;;;;-0.70;100.00;100362.56;5047801;28;20912;-57
2022/04/02 02:30:04;;;;;;;11.02;7.10;;;;;;;-0.70;100.00;100359.97;5047675;28;20024;-57
2022/04/02 02:32:35;;;;;;;9.45;6.45;;;;;;;-0.76;100.00;100358.31;5047753;28;20020;-57
2022/04/02 02:37:45;;;;;;;11.40;6.93;;;;;;;-0.81;100.00;100361.78;5048299;28;20047;-58
2022/04/02 02:40:12;;;;;;;12.38;5.60;;;;;;;-0.78;100.00;100370.34;5048803;28;20075;-57
2022/04/02 02:42:38;;;;;;;10.80;6.55;;;;;;;-0.88;100.00;100352.34;5048535;28;20040;-57
2022/04/02 02:45:03;;;;;;;10.15;6.47;;;;;;;-0.85;100.00;100367.81;5047421;28;20035;-57
2022/04/02 02:47:29;;;;;;;9.85;6.40;;;;;;;-0.83;100.00;100360.91;5047796;28;20035;-57
2022/04/02 02:49:55;;;;;;;9.32;5.95;;;;;;;-0.85;100.00;100375.53;5047738;28;20032;-58
2022/04/02 02:52:20;;;;;;;10.27;6.55;;;;;;;-0.84;100.00;100374.66;5049048;28;20040;-58
2022/04/02 02:54:46;;;;;;;7.05;5.35;;;;;;;-0.89;100.00;100366.97;5047370;28;20805;-58
2022/04/02 02:57:11;;;;;;;8.48;5.60;;;;;;;-0.88;100.00;100370.41;5049225;28;20035;-58
2022/04/02 02:59:36;;;;;;;10.02;6.22;;;;;;;-0.94;100.00;100357.50;5047524;28;20024;-57
2022/04/02 03:02:03;;;;;;;10.80;5.55;;;;;;;-0.89;100.00;100366.09;5047559;28;20028;-58
2022/04/02 03:04:30;;;;;;;8.05;5.55;;;;;;;-0.92;100.00;100379.88;5046932;28;20020;-57
2022/04/02 03:06:56;;;;;;;6.82;5.43;;;;;;;-1.08;100.00;100345.53;5046835;28;20043;-58
2022/04/02 03:09:21;;;;;;;9.32;5.53;;;;;;;-0.91;100.00;100378.16;5031086;28;20040;-57
2022/04/02 03:11:46;;;;;;;11.27;5.60;;;;;;;-0.96;100.00;100365.28;5047436;28;20063;-57
2022/04/02 03:14:12;;;;;;;8.88;4.75;;;;;;;-0.92;100.00;100371.28;5046769;28;20019;-58
2022/04/02 03:16:38;;;;;;;6.45;4.80;;;;;;;-0.92;100.00;100379.00;5047660;28;20129;-57
2022/04/02 03:19:06;;;;;;;6.90;4.80;;;;;;;-0.94;100.00;100367.81;5047939;28;20028;-57
2022/04/02 03:21:31;;;;;;;7.28;5.20;;;;;;;-0.97;100.00;100362.69;5047417;28;20028;-57
2022/04/02 03:23:57;;;;;;;9.25;5.38;;;;;;;-0.97;100.00;100378.16;5048195;28;20794;-58
2022/04/02 03:26:25;;;;;;;11.50;6.10;;;;;;;-1.42;100.00;100302.72;5046853;28;20035;-57
2022/04/02 03:28:51;;;;;;;7.75;5.25;;;;;;;-1.16;100.00;100357.63;5047138;28;20028;-58
2022/04/02 03:31:16;;;;;;;12.55;5.30;;;;;;;-1.11;100.00;100365.31;5046727;28;20031;-58
2022/04/02 03:33:42;;;;;;;9.25;4.82;;;;;;;-1.08;100.00;100378.19;5046440;28;20020;-58
2022/04/02 03:36:10;;;;;;;8.00;4.85;;;;;;;-1.09;100.00;100374.78;5047365;28;20034;-58
2022/04/02 03:38:36;;;;;;;7.65;4.95;;;;;;;-1.12;100.00;100369.66;5047299;28;20038;-58
2022/04/02 03:41:02;;;;;;;10.15;4.63;;;;;;;-1.07;100.00;100373.03;5048278;28;20780;-58
2022/04/02 03:43:27;;;;;;;9.43;5.13;;;;;;;-1.08;100.00;100371.31;5046477;28;20028;-58
2022/04/02 03:47:07;;;;;;;6.70;4.47;;;;;;;-1.05;100.00;100373.88;5046512;28;20559;-57
2022/04/02 03:48:38;;;;;;;9.40;4.70;;;;;;;-1.06;100.00;100369.63;5046593;28;20074;-58
2022/04/02 03:51:03;;;;;;;5.25;3.72;;;;;;;-1.16;100.00;100354.19;5046381;28;20253;-58
2022/04/02 03:53:29;;;;;;;7.43;5.45;;;;;;;-1.04;100.00;100373.03;5046024;28;20028;-58
2022/04/02 03:55:55;;;;;;;8.38;4.35;;;;;;;-1.14;100.00;100361.03;5047795;28;20914;-58
2022/04/02 03:58:20;;;;;;;7.70;5.30;;;;;;;-1.00;100.00;100376.47;5048265;28;20028;-58
2022/04/02 04:00:45;;;;;;;7.63;4.53;;;;;;;-1.04;100.00;100375.59;5046408;28;20987;-58
2022/04/02 04:03:11;;;;;;;7.65;4.30;;;;;;;-1.05;100.00;100371.31;5046989;28;20035;-58
2022/04/02 04:05:37;;;;;;;6.53;3.60;;;;;;;-1.04;100.00;100382.47;5049066;28;20034;-58
2022/04/02 04:08:03;;;;;;;7.10;3.72;;;;;;;-1.05;100.00;100383.38;5030288;28;20101;-58
2022/04/02 04:10:28;;;;;;;9.13;3.63;;;;;;;-1.08;100.00;100375.63;5048511;28;20028;-58
2022/04/02 04:12:54;;;;;;;9.20;3.88;;;;;;;-1.05;100.00;100396.25;5047780;28;20031;-58
2022/04/02 04:15:19;;;;;;;6.38;3.92;;;;;;;-1.06;100.00;100389.38;5047897;28;20032;-58
2022/04/02 04:17:45;;;;;;;5.55;3.70;;;;;;;-1.30;100.00;100349.06;5045620;28;20039;-58
2022/04/02 04:20:11;;;;;;;6.10;3.85;;;;;;;-1.13;100.00;100367.91;5046600;28;20127;-58
2022/04/02 04:22:36;;;;;;;7.68;4.00;;;;;;;-1.01;100.00;100386.78;5047362;28;20357;-58
2022/04/02 04:25:03;;;;;;;10.48;4.75;;;;;;;-1.01;100.00;100394.53;5045293;28;20566;-58
2022/04/02 04:27:28;;;;;;;7.57;4.20;;;;;;;-1.41;100.00;100325.06;5045351;28;20032;-58
2022/04/02 04:29:53;;;;;;;7.18;3.58;;;;;;;-1.00;100.00;100391.06;5047006;28;20802;-58
2022/04/02 04:32:19;;;;;;;6.93;3.13;;;;;;;-0.97;100.00;100397.06;5046194;28;20044;-58
2022/04/02 04:34:44;;;;;;;6.07;3.35;;;;;;;-1.00;100.00;100396.22;5045661;28;20028;-57
2022/04/02 04:37:10;;;;;;;8.65;3.72;;;;;;;-1.01;100.00;100385.03;5046453;28;20051;-58
2022/04/02 04:39:35;;;;;;;8.38;3.90;;;;;;;-0.97;100.00;100391.03;5045810;28;20040;-58
2022/04/02 04:42:27;;;;;;;5.53;3.22;;;;;;;-0.95;100.00;100399.66;5046922;28;20035;-58
2022/04/02 04:44:52;;;;;;;6.38;3.40;;;;;;;-0.92;100.00;100407.38;5045293;28;20027;-58
2022/04/02 04:47:18;;;;;;;4.82;3.05;;;;;;;-0.94;100.00;100403.94;5044880;28;20032;-58
2022/04/02 04:49:43;;;;;;;4.35;2.72;;;;;;;-1.00;100.00;100403.94;5045636;28;20899;-58
2022/04/02 04:52:08;;;;;;;7.90;3.17;;;;;;;-0.92;100.00;100415.97;5045765;28;20129;-58
2022/04/02 04:54:34;;;;;;;5.82;2.75;;;;;;;-0.92;100.00;100415.97;5044467;28;20032;-58
2022/04/02 04:56:59;;;;;;;4.82;2.88;;;;;;;-0.93;100.00;100419.41;5045858;28;20032;-58
2022/04/02 04:59:24;;;;;;;6.18;2.75;;;;;;;-0.91;100.00;100424.56;5044024;28;20975;-58
2022/04/02 05:01:50;;;;;;;7.57;2.90;;;;;;;-0.91;100.00;100427.97;5046233;28;20042;-58
2022/04/02 05:04:15;;;;;;;5.65;2.80;;;;;;;-1.13;100.00;100385.09;5044936;28;20129;-58
2022/04/02 05:06:41;;;;;;;5.00;2.42;;;;;;;-0.90;100.00;100437.44;5045449;28;20024;-58
2022/04/02 05:09:06;;;;;;;4.90;2.65;;;;;;;-1.23;100.00;100379.13;5045126;28;20142;-57
2022/04/02 05:11:32;;;;;;;5.38;2.67;;;;;;;-0.86;100.00;100427.97;5057324;28;20134;-57
2022/04/02 05:13:58;;;;;;;5.93;2.45;;;;;;;-0.91;100.00;100440.88;5067596;28;20616;-58
2022/04/02 05:16:24;;;;;;;9.55;2.42;;;;;;;-1.06;100.00;100412.56;5065542;28;20028;-58
2022/04/02 05:18:49;;;;;;;5.13;2.55;;;;;;;-0.89;100.00;100446.03;5065669;28;20028;-58
2022/04/02 05:21:15;;;;;;;4.55;2.08;;;;;;;-0.95;100.00;100430.59;5060628;28;20055;-57
2022/04/02 05:23:41;;;;;;;4.05;2.25;;;;;;;-1.07;100.00;100422.03;5046214;28;20054;-57
2022/04/02 05:26:07;;;;;;;2.88;1.58;;;;;;;-1.50;100.00;100335.41;5048473;28;20051;-56
2022/04/02 05:28:32;;;;;;;2.92;1.65;;;;;;;-0.91;100.00;100445.19;5046830;28;20089;-57
2022/04/02 05:30:57;;;;;;;7.03;2.58;;;;;;;-0.87;100.00;100450.31;5047564;28;20880;-58
2022/04/02 05:33:23;;;;;;;4.50;2.15;;;;;;;-0.82;100.00;100458.06;5046543;28;20031;-57
2022/04/02 05:35:48;;;;;;;4.88;2.15;;;;;;;-0.83;100.00;100458.91;5046276;28;20854;-57
2022/04/02 05:38:14;;;;;;;4.90;2.38;;;;;;;-0.79;100.00;100466.63;5049297;28;20032;-58
2022/04/02 05:40:39;;;;;;;3.60;2.17;;;;;;;-0.98;100.00;100435.75;5049715;28;20035;-58
2022/04/02 05:43:05;;;;;;;6.10;2.10;;;;;;;-0.82;100.00;100470.94;5050963;28;20181;-58
2022/04/02 05:45:32;;;;;;;4.43;2.10;;;;;;;-0.86;100.00;100461.50;5051743;28;20030;-58
2022/04/02 05:47:57;;;;;;;9.55;2.13;;;;;;;-0.83;100.00;100469.22;5050027;28;20895;-58
2022/04/02 05:50:25;;;;;;;4.35;2.20;;;;;;;-0.93;100.00;100457.22;5049955;28;20024;-58
2022/04/02 05:52:51;;;;;;;6.38;3.05;;;;;;;-0.80;100.00;100485.53;5049979;28;20127;-58
2022/04/02 05:55:17;;;;;;;4.30;2.05;;;;;;;-0.76;100.00;100486.41;5049498;28;20047;-57
2022/04/02 05:57:42;;;;;;;4.15;2.13;;;;;;;-0.78;100.00;100489.00;5049865;28;20070;-57
2022/04/02 06:00:10;;;;;;;3.70;1.95;;;;;;;-0.73;100.00;100492.41;5032874;28;20031;-58
2022/04/02 06:02:40;;;;;;;4.45;2.35;;;;;;;-0.83;100.00;100476.97;5051239;28;20817;-60
2022/04/02 06:05:07;;;;;;;3.10;1.75;;;;;;;-0.68;100.00;100500.13;5052159;28;20032;-58
2022/04/02 06:07:33;;;;;;;4.53;2.17;;;;;;;-0.80;100.00;100484.69;5053122;28;20036;-58
2022/04/02 06:09:59;;;;;;;3.72;2.28;;;;;;;-0.69;100.00;100494.13;5049933;28;20028;-58
2022/04/02 06:12:25;;;;;;;5.82;2.80;;;;;;;-0.62;100.00;100505.28;5048456;28;20071;-58
2022/04/02 06:14:50;;;;;;;4.53;2.22;;;;;;;-0.54;100.00;100518.97;5047826;28;20054;-58
2022/04/02 06:17:15;;;;;;;4.00;2.38;;;;;;;-0.84;100.00;100457.19;5048152;28;20810;-57
2022/04/02 06:19:41;;;;;;;4.55;2.05;;;;;;;-0.48;100.00;100512.97;5048102;28;20051;-58
2022/04/02 06:22:07;;;;;;;5.38;2.47;;;;;;;-0.50;100.00;100510.38;5046945;28;20036;-57
2022/04/02 06:24:36;;;;;;;4.05;2.00;;;;;;;-0.39;100.00;100524.09;5047443;28;20016;-57
2022/04/02 06:27:01;;;;;;;4.03;1.88;;;;;;;-0.90;100.00;100436.56;5046341;28;20423;-57
2022/04/02 06:29:27;;;;;;;3.40;1.65;;;;;;;-0.39;100.00;100518.94;5047022;28;20024;-57
2022/04/02 06:31:53;;;;;;;3.83;1.70;;;;;;;-0.51;100.00;100503.53;5047699;28;20793;-57
2022/04/02 06:34:18;;;;;;;3.22;1.75;;;;;;;-0.27;100.00;100536.94;5047712;28;20031;-57
2022/04/02 06:36:43;;;;;;;3.83;1.98;;;;;;;-0.25;100.00;100537.81;5047429;28;20035;-57
2022/04/02 06:39:09;;;;;;;6.00;1.98;;;;;;;-0.24;100.00;100539.53;5047731;28;20804;-58
2022/04/02 06:41:34;;;;;;;3.78;1.75;;;;;;;-0.31;100.00;100526.66;5047401;28;20028;-58
2022/04/02 06:44:00;;;;;;;3.85;2.30;;;;;;;-0.22;100.00;100535.22;5047006;28;20027;-57
2022/04/02 06:46:25;;;;;;;6.65;2.13;;;;;;;-0.12;100.00;100554.97;5045371;28;20951;-57
2022/04/02 06:48:50;;;;;;;5.93;2.45;;;;;;;-0.05;100.00;100548.91;5045114;28;20028;-58
2022/04/02 06:51:17;;;;;;;4.70;2.05;;;;;;;-0.33;100.00;100503.44;5046039;28;20094;-57
2022/04/02 06:53:42;;;;;;;5.95;2.53;;;;;;;0.03;100.00;100560.94;5029742;28;20032;-58
2022/04/02 06:56:08;;;;;;;3.65;1.90;;;;;;;-0.04;100.00;100537.72;5028834;28;20027;-56
2022/04/02 06:58:38;;;;;;;6.50;1.88;;;;;;;0.15;100.00;100558.28;5046799;28;20050;-57
2022/04/02 07:01:04;;;;;;;4.32;2.47;;;;;;;0.18;100.00;100568.59;5047065;28;20226;-57
2022/04/02 07:03:29;;;;;;;3.70;2.22;;;;;;;0.20;100.00;100566.88;5046990;28;20923;-56
2022/04/02 07:05:55;;;;;;;4.28;2.10;;;;;;;0.28;100.00;100570.25;5041353;28;20904;-57
2022/04/02 07:08:20;;;;;;;5.47;2.33;;;;;;;0.31;100.00;100573.66;5045273;28;20032;-57
2022/04/02 07:10:46;;;;;;;3.95;1.90;;;;;;;0.34;100.00;100580.53;5033801;28;20040;-56
2022/04/02 07:13:11;;;;;;;3.75;1.85;;;;;;;0.42;100.00;100584.81;5026603;28;20060;-56
2022/04/02 07:15:38;;;;;;;4.47;1.83;;;;;;;0.48;100.00;100589.94;5026385;28;20141;-55
2022/04/02 07:18:08;;;;;;;4.43;2.03;;;;;;;0.54;100.00;100591.66;5026901;28;20938;-56
2022/04/02 07:20:36;;;;;;;4.18;1.75;;;;;;;0.59;100.00;100587.28;5027939;28;20036;-56
2022/04/02 07:23:03;;;;;;;3.05;2.08;;;;;;;0.66;100.00;100598.44;5037020;28;20039;-56
2022/04/02 07:25:29;;;;;;;3.95;2.15;;;;;;;0.63;100.00;100583.81;5047739;28;20081;-56
2022/04/02 07:27:55;;;;;;;4.18;2.38;;;;;;;0.77;100.00;100602.69;5046179;28;20051;-57
2022/04/02 07:30:22;;;;;;;5.32;2.13;;;;;;;0.86;100.00;100602.59;5044702;28;20020;-56
2022/04/02 07:32:47;;;;;;;5.90;1.90;;;;;;;0.91;100.00;100606.00;5046561;28;20035;-57
2022/04/02 07:35:12;;;;;;;3.97;1.85;;;;;;;0.75;100.00;100564.75;5046064;28;20084;-55
2022/04/02 07:38:02;;;;;;;4.15;2.22;;;;;;;1.03;100.00;100595.56;5046079;28;20032;-55
2022/04/02 07:40:32;;;;;;;3.53;1.67;;;;;;;0.66;100.00;100533.81;5046076;28;20082;-56
2022/04/02 07:43:09;;;;;;;3.42;1.70;;;;;;;1.24;100.00;100619.53;5040254;28;20029;-56
2022/04/02 07:45:39;;;;;;;3.33;1.65;;;;;;;1.27;100.00;100619.50;5037170;28;20032;-56
2022/04/02 07:48:08;;;;;;;4.05;1.88;;;;;;;1.34;100.00;100611.69;5010312;28;20934;-54
2022/04/02 07:50:34;;;;;;;3.83;1.80;;;;;;;1.51;100.00;100624.47;5044760;28;20032;-56
2022/04/02 07:53:00;;;;;;;3.70;1.98;;;;;;;1.63;100.00;100624.31;5045893;28;21027;-55
2022/04/02 07:55:28;;;;;;;2.75;1.60;;;;;;;1.77;100.00;100619.00;5046585;28;20032;-58
2022/04/02 07:57:57;;;;;;;4.40;1.67;;;;;;;1.82;100.00;100620.69;5028742;28;20839;-58
2022/04/02 08:00:26;;;;;;;9.68;2.42;;;;;;;1.99;100.00;100634.28;5028126;28;20035;-57
2022/04/02 08:02:51;;;;;;;5.03;1.65;;;;;;;2.06;100.00;100630.72;5044808;28;20036;-58
2022/04/02 08:05:19;;;;;;;2.97;1.80;;;;;;;2.20;100.00;100627.16;5044956;28;20082;-58
2022/04/02 08:07:57;;;;;;;5.03;2.33;;;;;;;2.34;100.00;100612.25;5043977;28;20030;-57
2022/04/02 08:10:24;;;;;;;4.53;2.25;;;;;;;2.53;100.00;100626.69;5044608;28;20058;-58
2022/04/02 08:12:50;;;;;;;3.28;1.70;;;;;;;2.60;100.00;100628.31;5045188;28;20020;-58
2022/04/02 08:15:17;;;;;;;3.95;1.55;;;;;;;2.63;100.00;100617.91;5044806;28;20152;-57
2022/04/02 08:17:45;;;;;;;3.63;1.95;;;;;;;2.65;100.00;100629.09;5046571;28;20089;-57
2022/04/02 08:20:11;;;;;;;4.93;1.52;;;;;;;2.62;100.00;100616.19;5046478;28;20043;-58
2022/04/02 08:22:37;;;;;;;5.82;2.00;;;;;;;2.79;100.00;100639.28;5044816;28;20078;-58
2022/04/02 08:25:04;;;;;;;3.40;1.58;;;;;;;2.82;100.00;100629.72;5044385;28;20028;-57
2022/04/02 08:27:45;;;;;;;5.60;2.25;;;;;;;2.86;100.00;100633.97;5044252;28;20039;-58
2022/04/02 08:30:26;;;;;;;3.17;1.90;;;;;;;2.81;100.00;100630.59;5044770;28;20028;-58
2022/04/02 08:33:25;;;;;;;4.85;2.30;;;;;;;2.85;100.00;100645.22;5044977;28;20063;-58
2022/04/02 08:36:06;;;;;;;4.72;1.88;;;;;;;2.94;100.00;100641.66;5045195;28;20067;-57
2022/04/02 08:38:56;;;;;;;3.03;1.65;;;;;;;2.97;100.00;100647.63;5045406;28;20028;-58
2022/04/02 08:41:45;;;;;;;5.10;2.40;;;;;;;3.03;100.00;100652.75;5045907;28;20131;-57
2022/04/02 08:44:48;;;;;;;4.35;1.80;;;;;;;3.00;100.00;100655.41;5045444;28;20100;-54
2022/04/02 08:47:59;;;;;;;4.25;2.20;;;;;;;3.04;100.00;100664.00;5040785;28;20032;-56
2022/04/02 08:50:34;;;;;;;3.72;2.03;;;;;;;3.08;100.00;100661.31;5027364;28;20143;-55
2022/04/02 08:53:19;;;;;;;3.60;2.20;;;;;;;3.06;100.00;100670.00;5027472;28;20886;-53
2022/04/02 08:55:50;;;;;;;6.95;2.33;;;;;;;3.09;100.00;100668.22;5025200;28;20453;-54
2022/04/02 08:58:26;;;;;;;5.03;2.15;;;;;;;3.32;100.00;100672.19;5024500;28;20036;-55
2022/04/02 09:01:06;;;;;;;3.58;1.75;;;;;;;3.42;100.00;100673.75;5024464;28;20033;-55
2022/04/02 09:03:50;;;;;;;3.13;1.58;;;;;;;3.57;100.00;100676.97;5030480;28;20079;-55
2022/04/02 09:06:44;;;;;;;3.75;2.03;;;;;;;3.79;100.00;100680.00;5044316;28;20318;-56
2022/04/02 09:09:43;;;;;;;4.20;1.88;;;;;;;3.95;100.00;100675.41;5025959;28;20933;-55
2022/04/02 09:12:30;;;;;;;3.58;1.63;;;;;;;4.03;100.00;100686.50;5034402;28;20036;-56
2022/04/02 09:14:58;;;;;;;3.75;2.05;;;;;;;4.02;100.00;100688.25;5049389;28;20032;-57
2022/04/02 09:17:33;;;;;;;8.25;2.35;;;;;;;3.86;100.00;100699.81;5049308;28;20060;-57
2022/04/02 09:20:13;;;;;;;3.58;2.05;;;;;;;3.87;100.00;100704.13;5050600;28;20032;-55
2022/04/02 09:22:42;;;;;;;4.70;1.70;;;;;;;3.79;100.00;100705.13;5050411;28;20040;-56
2022/04/02 09:25:20;;;;;;;4.88;1.98;;;;;;;3.83;100.00;100697.28;5045595;28;20896;-56
2022/04/02 09:28:26;;;;;;;3.05;1.90;;;;;;;3.96;100.00;100706.56;5022518;28;20113;-58
2022/04/02 09:31:00;;;;;;;3.92;1.83;;;;;;;3.88;100.00;100716.25;5018893;28;21004;-56
2022/04/02 09:33:59;;;;;;;3.40;1.70;;;;;;;3.91;100.00;100710.13;5047073;28;20093;-57
2022/04/02 09:36:30;;;;;;;5.07;1.40;;;;;;;4.04;100.00;100716.81;5031724;28;20032;-57
2022/04/02 09:38:58;;;;;;;6.70;1.83;;;;;;;4.11;100.00;100718.44;5048856;28;20032;-57
2022/04/02 09:41:55;;;;;;;5.65;2.08;;;;;;;4.25;100.00;100712.97;5048429;28;20024;-57
2022/04/02 09:44:43;;;;;;;4.60;1.85;;;;;;;4.53;100.00;100721.91;5048527;28;20024;-56
2022/04/02 09:47:19;;;;;;;3.03;1.70;;;;;;;4.62;100.00;100726.94;5025260;28;20124;-55
2022/04/02 09:50:03;;;;;;;6.13;2.20;;;;;;;4.36;100.00;100729.22;5044550;28;20078;-57
2022/04/02 09:52:30;;;;;;;4.57;2.00;;;;;;;4.46;100.00;100709.94;5049526;28;20090;-55
2022/04/02 09:55:11;;;;;;;3.80;1.98;;;;;;;4.61;100.00;100727.81;5030606;28;20024;-56
2022/04/02 09:58:15;;;;;;;3.83;2.15;;;;;;;4.48;100.00;100723.75;5048306;28;20020;-56
2022/04/02 10:00:59;;;;;;;3.63;2.03;;;;;;;4.49;100.00;100730.69;5030568;28;20031;-56
2022/04/02 10:03:51;;;;;;;3.85;1.92;;;;;;;4.46;100.00;100735.97;5049006;28;20076;-57
2022/04/02 10:06:39;;;;;;;5.53;2.40;;;;;;;4.49;100.00;100741.97;5036595;28;20036;-56
2022/04/02 10:09:07;;;;;;;3.13;1.95;;;;;;;4.36;100.00;100734.44;5037945;28;20051;-57
2022/04/02 10:11:35;;;;;;;4.97;2.20;;;;;;;4.48;100.00;100736.78;5031545;28;20125;-57
2022/04/02 10:14:02;;;;;;;3.80;2.10;;;;;;;4.67;100.00;100732.91;5010987;28;20036;-57
2022/04/02 10:16:29;;;;;;;3.63;1.83;;;;;;;4.98;100.00;100739.19;5028372;28;20037;-56
2022/04/02 10:18:56;;;;;;;4.75;2.28;;;;;;;4.88;100.00;100727.25;5028619;28;20025;-55
2022/04/02 10:21:22;;;;;;;5.80;2.40;;;;;;;4.95;100.00;100738.38;5028952;28;20078;-56
2022/04/02 10:23:52;;;;;;;6.75;2.60;;;;;;;4.97;100.00;100729.63;5030218;28;20877;-57
2022/04/02 10:26:20;;;;;;;4.38;2.03;;;;;;;5.08;100.00;100706.81;5042952;28;20039;-56
2022/04/02 10:28:53;;;;;;;4.57;2.55;;;;;;;5.18;100.00;100730.03;5043595;28;20045;-56
2022/04/02 10:31:36;;;;;;;6.85;2.47;;;;;;;5.02;96.02;100727.81;5049510;28;20032;-55
2022/04/02 10:34:10;;;;;;;6.55;2.38;;;;;;;4.92;100.00;100730.66;5049068;28;20853;-56
2022/04/02 10:36:50;;;;;;;3.65;2.42;;;;;;;5.08;100.00;100724.19;5048929;28;20062;-56
2022/04/02 10:39:16;;;;;;;4.20;2.28;;;;;;;4.85;100.00;100693.47;5030219;28;20028;-57
2022/04/02 10:41:43;;;;;;;3.53;2.08;;;;;;;4.75;100.00;100735.34;5049394;28;20123;-57
2022/04/02 10:44:12;;;;;;;4.57;2.47;;;;;;;4.60;100.00;100733.91;5029095;28;20023;-56
2022/04/02 10:46:44;;;;;;;14.57;2.67;;;;;;;4.73;100.00;100737.97;5044123;28;20024;-55
2022/04/02 10:49:17;;;;;;;5.22;2.28;;;;;;;4.89;100.00;100741.13;5042702;28;20818;-56
2022/04/02 10:51:44;;;;;;;5.15;2.47;;;;;;;4.84;100.00;100749.03;5029955;28;20036;-56
2022/04/02 10:54:12;;;;;;;5.88;2.85;;;;;;;4.56;100.00;100733.13;5029634;28;20028;-56
2022/04/02 10:56:43;;;;;;;5.35;2.78;;;;;;;4.45;100.00;100750.72;5048892;28;20237;-57
2022/04/02 10:59:10;;;;;;;5.60;2.60;;;;;;;4.34;100.00;100725.78;5047237;28;20028;-55
2022/04/02 11:01:40;;;;;;;4.85;2.50;;;;;;;4.40;100.00;100752.53;5032182;28;20887;-57
2022/04/02 11:04:23;;;;;;;4.20;2.42;;;;;;;4.49;100.00;100741.09;5047494;28;20047;-56
2022/04/02 11:06:49;;;;;;;4.97;2.63;;;;;;;4.53;100.00;100754.00;5046297;28;20039;-57
2022/04/02 11:09:36;;;;;;;5.40;2.63;;;;;;;4.62;100.00;100727.81;5042495;28;20035;-56
2022/04/02 11:12:07;;;;;;;5.00;3.08;;;;;;;4.48;100.00;100703.81;5037835;28;20029;-57
2022/04/02 11:14:38;;;;;;;4.70;2.92;;;;;;;4.98;100.00;100738.31;5047423;28;20131;-56
2022/04/02 11:17:04;;;;;;;4.75;3.15;;;;;;;5.40;100.00;100752.13;5048960;28;20870;-56
2022/04/02 11:22:25;;;;;;;6.22;2.90;;;;;;;5.02;100.00;100733.00;5048334;28;20967;-57
2022/04/02 11:25:06;;;;;;;6.22;2.60;;;;;;;4.93;100.00;100766.22;5047218;28;20028;-57
2022/04/02 11:27:35;;;;;;;8.25;3.55;;;;;;;4.60;100.00;100754.72;5045700;28;20107;-56
2022/04/02 11:30:11;;;;;;;5.22;3.40;;;;;;;4.21;100.00;100763.31;5023072;28;20095;-55
2022/04/02 11:32:39;;;;;;;4.32;2.83;;;;;;;4.02;100.00;100766.22;5043780;28;20052;-55
2022/04/02 11:35:09;;;;;;;8.20;3.25;;;;;;;3.99;100.00;100768.88;5047881;28;20160;-56